Mill Creek, Kentucky
Current Conditions -  °F | °C
As of 9:35 AM on Sunday 23 Nov 2014 (Local Time) from KFGX Reporting Station
Clear Clear  
Wind Chill: 55°   Ceiling: Unl
Heat Index: 55°   Visibility: 10mi
Dew Point: 38°   Wind: 8mph
Humidity: 53%   Direction: 140°SE
Pressure: 29.99"   Gusts: NA
Location:  38.4934°N, 83.7754°W
Report Text: KFGX 231435Z AUTO 14007KT 10SM CLR 13/03 A2999 RMK AO2 T01260033
Loading
Personal Weather Stations






























Interactive Weather Map New forecast layout! Learn more

10-Day Weather Forecast

Advertisements
Track Severe Weather on mobile